createdAt,value
2017-06-03T00:01:06.567Z,6.47
2017-06-03T00:03:34.107Z,6.90
2017-06-03T00:06:01.633Z,6.50
2017-06-03T00:08:29.184Z,5.53
2017-06-03T00:10:56.706Z,5.33
2017-06-03T00:13:24.226Z,5.10
2017-06-03T00:15:51.771Z,5.37
2017-06-03T00:18:19.303Z,5.53
2017-06-03T00:20:46.847Z,5.17
2017-06-03T00:23:14.370Z,5.20
2017-06-03T00:25:42.711Z,6.17
2017-06-03T00:28:10.235Z,6.53
2017-06-03T00:30:37.763Z,6.60
2017-06-03T00:33:05.315Z,7.23
2017-06-03T00:35:32.839Z,7.23
2017-06-03T00:38:00.379Z,8.47
2017-06-03T00:40:27.902Z,8.53
2017-06-03T00:42:55.450Z,7.70
2017-06-03T00:45:22.975Z,6.40
2017-06-03T00:47:50.523Z,6.20
2017-06-03T00:50:18.108Z,7.27
2017-06-03T00:52:45.630Z,8.57
2017-06-03T00:55:13.942Z,9.77
2017-06-03T00:57:41.469Z,9.73
2017-06-03T01:00:09.011Z,9.00
2017-06-03T01:02:36.539Z,8.03
2017-06-03T01:05:04.849Z,8.73
2017-06-03T01:07:32.376Z,7.40
2017-06-03T01:10:00.660Z,7.40
2017-06-03T01:12:28.207Z,7.37
2017-06-03T01:14:56.495Z,6.70
2017-06-03T01:17:24.059Z,7.10
2017-06-03T01:19:51.586Z,6.77
2017-06-03T01:22:19.115Z,7.73
2017-06-03T01:24:46.658Z,6.77
2017-06-03T01:27:14.179Z,7.30
2017-06-03T01:29:41.723Z,9.60
2017-06-03T01:32:10.015Z,8.30
2017-06-03T01:34:37.559Z,8.93
2017-06-03T01:37:05.900Z,8.50
2017-06-03T01:39:33.439Z,7.47
2017-06-03T01:42:00.963Z,7.60
2017-06-03T01:44:29.291Z,8.27
2017-06-03T01:46:56.811Z,7.73
2017-06-03T01:49:24.334Z,7.77
2017-06-03T01:51:51.909Z,8.10
2017-06-03T01:54:20.206Z,8.63
2017-06-03T01:56:47.747Z,7.77
2017-06-03T01:59:16.031Z,7.27
2017-06-03T02:01:44.539Z,5.67
2017-06-03T02:04:12.054Z,5.23
2017-06-03T02:06:39.579Z,5.50
2017-06-03T02:09:07.127Z,4.43
2017-06-03T02:11:34.655Z,7.63
2017-06-03T02:14:02.203Z,9.83
2017-06-03T02:16:30.494Z,9.47
2017-06-03T02:18:58.803Z,8.70
2017-06-03T02:21:26.323Z,7.60
2017-06-03T02:23:54.659Z,8.90
2017-06-03T02:26:22.182Z,8.73
2017-06-03T02:28:49.707Z,8.70
2017-06-03T02:31:17.248Z,8.30
2017-06-03T02:33:44.771Z,7.47
2017-06-03T02:36:12.315Z,7.40
2017-06-03T02:38:39.839Z,6.77
2017-06-03T02:41:07.389Z,6.80
2017-06-03T02:43:34.912Z,5.70
2017-06-03T02:46:02.438Z,6.80
2017-06-03T02:48:30.795Z,5.03
2017-06-03T02:50:58.321Z,5.30
2017-06-03T02:53:25.867Z,7.40
2017-06-03T02:55:53.383Z,7.30
2017-06-03T03:00:52.512Z,6.10
2017-06-03T03:03:20.819Z,5.67
2017-06-03T03:05:48.338Z,5.60
2017-06-03T03:08:15.900Z,6.37
2017-06-03T03:10:43.419Z,5.67
2017-06-03T03:13:10.944Z,5.13
2017-06-03T03:15:38.486Z,5.80
2017-06-03T03:18:06.011Z,5.37
2017-06-03T03:20:34.319Z,5.07
2017-06-03T03:23:01.842Z,6.57
2017-06-03T03:25:29.378Z,6.40
2017-06-03T03:27:56.903Z,6.23
2017-06-03T03:30:24.470Z,7.27
2017-06-03T03:32:51.990Z,6.73
2017-06-03T03:35:20.283Z,6.00
2017-06-03T03:37:47.827Z,6.13
2017-06-03T03:40:16.119Z,6.03
2017-06-03T03:42:43.662Z,7.00
2017-06-03T03:45:11.950Z,8.10
2017-06-03T03:47:40.255Z,7.43
2017-06-03T03:50:07.779Z,6.20
2017-06-03T03:52:36.111Z,5.57
2017-06-03T03:55:03.631Z,6.63
2017-06-03T03:57:31.151Z,6.27
2017-06-03T03:59:58.694Z,7.53
2017-06-03T04:02:26.238Z,6.33
2017-06-03T04:04:54.546Z,6.67
2017-06-03T04:07:22.068Z,6.10
2017-06-03T04:09:50.387Z,9.17
2017-06-03T04:12:17.912Z,8.97
2017-06-03T04:14:46.243Z,9.77
2017-06-03T04:17:13.768Z,7.97
2017-06-03T04:19:41.294Z,8.53
2017-06-03T04:22:09.603Z,9.00
2017-06-03T04:24:37.126Z,8.00
2017-06-03T04:27:04.664Z,7.70
2017-06-03T04:29:32.187Z,6.10
2017-06-03T04:31:59.731Z,6.50
2017-06-03T04:34:28.018Z,6.70
2017-06-03T04:36:55.588Z,6.60
2017-06-03T04:39:23.107Z,5.97
2017-06-03T04:41:50.630Z,7.17
2017-06-03T04:44:18.180Z,6.97
2017-06-03T04:46:45.708Z,9.07
2017-06-03T04:49:13.246Z,8.83
2017-06-03T04:51:40.767Z,8.17
2017-06-03T04:54:08.316Z,8.00
2017-06-03T04:56:35.836Z,7.13
2017-06-03T04:59:04.167Z,8.40
2017-06-03T05:01:31.695Z,7.00
2017-06-03T05:03:59.219Z,7.33
2017-06-03T05:06:26.759Z,5.80
2017-06-03T05:08:54.299Z,6.53
2017-06-03T05:11:21.851Z,8.10
2017-06-03T05:13:49.391Z,10.80
2017-06-03T05:16:16.936Z,9.60
2017-06-03T05:18:45.263Z,9.50
2017-06-03T05:21:12.879Z,8.80
2017-06-03T05:23:41.168Z,6.83
2017-06-03T05:26:08.708Z,6.10
2017-06-03T05:28:37.026Z,6.43
2017-06-03T05:31:04.555Z,8.40
2017-06-03T05:33:32.095Z,7.60
2017-06-03T05:36:00.619Z,7.60
2017-06-03T05:38:28.199Z,6.10
2017-06-03T05:40:55.760Z,8.87
2017-06-03T05:43:23.295Z,8.63
2017-06-03T05:45:50.874Z,9.13
2017-06-03T05:48:18.414Z,8.03
2017-06-03T05:50:45.971Z,9.50
2017-06-03T05:53:14.262Z,9.00
2017-06-03T05:55:41.809Z,8.00
2017-06-03T05:58:09.342Z,9.47
2017-06-03T06:00:36.916Z,10.83
2017-06-03T06:03:04.442Z,9.63
2017-06-03T06:05:31.971Z,9.30
2017-06-03T06:08:00.282Z,7.73
2017-06-03T06:10:27.809Z,7.40
2017-06-03T06:12:56.131Z,10.13
2017-06-03T06:15:23.666Z,10.27
2017-06-03T06:17:51.211Z,8.33
2017-06-03T06:20:19.510Z,11.03
2017-06-03T06:22:47.064Z,10.53
2017-06-03T06:25:14.595Z,7.93
2017-06-03T06:27:42.128Z,6.77
2017-06-03T06:30:09.675Z,8.33
2017-06-03T06:32:37.211Z,9.40
2017-06-03T06:35:05.526Z,9.90
2017-06-03T06:37:33.043Z,8.07
2017-06-03T06:40:01.355Z,8.40
2017-06-03T06:42:28.886Z,9.10
2017-06-03T06:44:57.196Z,8.93
2017-06-03T06:47:24.722Z,8.67
2017-06-03T06:49:52.251Z,8.07
2017-06-03T06:52:19.795Z,9.07
2017-06-03T06:54:47.325Z,8.03
2017-06-03T06:57:14.868Z,7.20
2017-06-03T06:59:42.406Z,9.10
2017-06-03T07:02:09.954Z,8.37
2017-06-03T07:04:37.479Z,9.17
2017-06-03T07:07:05.810Z,9.33
2017-06-03T07:09:33.342Z,9.80
2017-06-03T07:12:00.874Z,9.30
2017-06-03T07:14:28.419Z,9.50
2017-06-03T07:16:55.951Z,10.07
2017-06-03T07:19:23.504Z,8.10
2017-06-03T07:21:51.034Z,8.60
2017-06-03T07:24:18.579Z,8.57
2017-06-03T07:26:46.872Z,7.40
2017-06-03T07:29:14.433Z,7.57
2017-06-03T07:31:42.723Z,7.50
2017-06-03T07:34:10.257Z,8.43
2017-06-03T07:36:38.563Z,8.27
2017-06-03T07:39:06.091Z,9.93
2017-06-03T07:41:33.638Z,9.53
2017-06-03T07:44:01.159Z,8.00
2017-06-03T07:46:28.709Z,8.93
2017-06-03T07:48:56.243Z,10.00
2017-06-03T07:51:24.579Z,7.70
2017-06-03T07:53:52.106Z,8.27
2017-06-03T07:56:19.631Z,8.93
2017-06-03T07:58:47.951Z,9.33
2017-06-03T08:01:15.476Z,7.90
2017-06-03T08:03:43.782Z,9.30
2017-06-03T08:06:11.308Z,7.63
2017-06-03T08:08:39.623Z,7.23
2017-06-03T08:11:07.147Z,8.67
2017-06-03T08:13:35.446Z,8.67
2017-06-03T08:16:02.996Z,8.90
2017-06-03T08:18:30.532Z,8.43
2017-06-03T08:20:58.081Z,8.50
2017-06-03T08:23:25.607Z,8.37
2017-06-03T08:25:53.155Z,7.90
2017-06-03T08:28:20.679Z,9.13
2017-06-03T08:30:48.257Z,8.47
2017-06-03T08:33:15.793Z,9.60
2017-06-03T08:35:44.096Z,10.50
2017-06-03T08:38:11.643Z,8.00
2017-06-03T08:40:39.167Z,8.80
2017-06-03T08:43:06.713Z,8.90
2017-06-03T08:45:34.246Z,8.27
2017-06-03T08:48:01.789Z,8.00
2017-06-03T08:50:29.312Z,9.20
2017-06-03T08:52:56.890Z,6.90
2017-06-03T08:55:25.176Z,8.70
2017-06-03T08:57:52.703Z,8.23
2017-06-03T09:00:20.251Z,7.60
2017-06-03T09:02:47.777Z,6.97
2017-06-03T09:05:15.327Z,7.70
2017-06-03T09:07:42.855Z,7.17
2017-06-03T09:10:11.179Z,8.13
2017-06-03T09:12:38.707Z,8.80
2017-06-03T09:15:07.043Z,8.30
2017-06-03T09:17:34.557Z,7.20
2017-06-03T09:20:02.091Z,8.20
2017-06-03T09:22:29.639Z,7.97
2017-06-03T09:24:57.162Z,8.23
2017-06-03T09:27:24.707Z,7.90
2017-06-03T09:29:52.235Z,7.23
2017-06-03T09:32:19.784Z,7.20
2017-06-03T09:34:47.307Z,8.60
2017-06-03T09:37:14.870Z,7.50
2017-06-03T09:39:42.396Z,7.50
2017-06-03T09:42:09.922Z,6.40
2017-06-03T09:44:37.467Z,6.80
2017-06-03T09:47:04.991Z,7.30
2017-06-03T09:49:32.543Z,6.33
2017-06-03T09:52:00.834Z,6.23
2017-06-03T09:54:28.379Z,7.40
2017-06-03T09:56:56.675Z,7.40
2017-06-03T09:59:24.239Z,8.47
2017-06-03T10:01:51.763Z,6.53
2017-06-03T10:04:19.291Z,6.60
2017-06-03T10:06:46.833Z,5.67
2017-06-03T10:09:14.359Z,6.20
2017-06-03T10:11:41.906Z,5.60
2017-06-03T10:14:10.199Z,6.07
2017-06-03T10:16:37.749Z,6.00
2017-06-03T10:19:06.045Z,5.70
2017-06-03T10:21:33.587Z,6.03
2017-06-03T10:24:01.882Z,5.90
2017-06-03T10:26:29.402Z,5.90
2017-06-03T10:28:56.947Z,6.10
2017-06-03T10:31:24.473Z,5.40
2017-06-03T10:33:52.025Z,5.20
2017-06-03T10:36:19.551Z,4.90
2017-06-03T10:38:47.090Z,4.73
2017-06-03T10:41:14.626Z,4.83
2017-06-03T10:43:42.196Z,4.70
2017-06-03T10:46:09.729Z,4.90
2017-06-03T10:48:37.254Z,4.90
2017-06-03T10:51:04.799Z,4.53
2017-06-03T10:53:32.323Z,5.37
2017-06-03T10:55:59.862Z,4.47
2017-06-03T10:58:27.390Z,5.97
2017-06-03T11:00:54.954Z,5.80
2017-06-03T11:03:22.484Z,5.27
2017-06-03T11:05:50.007Z,4.37
2017-06-03T11:08:17.548Z,5.00
2017-06-03T11:10:45.840Z,5.80
2017-06-03T11:13:13.383Z,6.33
2017-06-03T11:15:40.908Z,6.87
2017-06-03T11:18:08.453Z,7.00
2017-06-03T11:20:35.978Z,6.30
2017-06-03T11:23:03.531Z,6.70
2017-06-03T11:25:31.823Z,6.60
2017-06-03T11:27:59.350Z,7.37
2017-06-03T11:30:26.899Z,6.10
2017-06-03T11:32:54.431Z,6.30
2017-06-03T11:35:21.974Z,6.50
2017-06-03T11:37:49.499Z,6.97
2017-06-03T11:40:17.064Z,6.17
2017-06-03T11:42:45.354Z,7.40
2017-06-03T11:45:13.646Z,6.20
2017-06-03T11:47:41.961Z,6.30
2017-06-03T11:50:09.492Z,7.00
2017-06-03T11:52:37.039Z,6.90
2017-06-03T11:55:05.329Z,7.83
2017-06-03T11:57:33.645Z,6.33
2017-06-03T12:00:01.179Z,7.30
2017-06-03T12:02:28.756Z,7.70
2017-06-03T12:04:56.284Z,7.30
2017-06-03T12:07:24.580Z,8.30
2017-06-03T12:09:52.125Z,8.70
2017-06-03T12:12:20.415Z,7.90
2017-06-03T12:14:47.959Z,6.83
2017-06-03T12:17:16.249Z,6.97
2017-06-03T12:19:43.791Z,7.00
2017-06-03T12:22:12.086Z,6.73
2017-06-03T12:24:39.647Z,5.87
2017-06-03T12:27:07.180Z,6.83
2017-06-03T12:29:35.480Z,6.77
2017-06-03T12:32:03.024Z,6.70
2017-06-03T12:34:31.314Z,5.90
2017-06-03T12:36:58.864Z,7.10
2017-06-03T12:39:26.402Z,6.43
2017-06-03T12:41:53.952Z,7.13
2017-06-03T12:44:21.479Z,7.07
2017-06-03T12:46:49.050Z,6.70
2017-06-03T12:49:16.578Z,7.13
2017-06-03T12:51:44.873Z,6.90
2017-06-03T12:54:12.424Z,7.50
2017-06-03T12:56:39.949Z,8.53
2017-06-03T12:59:07.487Z,8.00
2017-06-03T13:01:35.019Z,9.40
2017-06-03T13:04:02.586Z,8.80
2017-06-03T13:06:30.111Z,8.00
2017-06-03T13:08:58.402Z,8.57
2017-06-03T13:11:25.947Z,7.63
2017-06-03T13:13:54.239Z,8.17
2017-06-03T13:16:21.786Z,9.17
2017-06-03T13:18:50.075Z,7.70
2017-06-03T13:21:17.628Z,8.20
2017-06-03T13:23:45.920Z,8.70
2017-06-03T13:26:13.487Z,9.33
2017-06-03T13:28:41.018Z,8.57
2017-06-03T13:31:08.548Z,8.10
2017-06-03T13:33:36.095Z,7.67
2017-06-03T13:36:03.615Z,8.13
2017-06-03T13:38:31.163Z,8.23
2017-06-03T13:40:59.451Z,6.40
2017-06-03T13:43:26.995Z,7.00
2017-06-03T13:45:55.283Z,6.97
2017-06-03T13:48:22.848Z,6.63
2017-06-03T13:50:51.140Z,8.03
2017-06-03T13:53:18.670Z,7.70
2017-06-03T13:55:46.218Z,6.70
2017-06-03T13:58:13.748Z,6.73
2017-06-03T14:00:41.296Z,8.10
2017-06-03T14:03:08.815Z,7.60
2017-06-03T14:05:36.387Z,4.53
2017-06-03T14:08:04.681Z,5.20
2017-06-03T14:10:32.209Z,4.80
2017-06-03T14:12:59.751Z,4.90
2017-06-03T14:15:27.275Z,5.27
2017-06-03T14:17:54.815Z,5.43
2017-06-03T14:20:22.343Z,5.50
2017-06-03T14:22:49.891Z,5.90
2017-06-03T14:25:17.417Z,5.40
2017-06-03T14:27:44.942Z,5.47
2017-06-03T14:30:12.483Z,5.63
2017-06-03T14:32:40.041Z,5.43
2017-06-03T14:35:07.598Z,4.83
2017-06-03T14:37:35.118Z,5.10
2017-06-03T14:40:02.639Z,5.00
2017-06-03T14:42:30.183Z,5.20
2017-06-03T14:44:57.708Z,5.47
2017-06-03T14:47:25.253Z,5.70
2017-06-03T14:49:52.784Z,6.43
2017-06-03T14:52:20.334Z,5.47
2017-06-03T14:54:47.861Z,6.20
2017-06-03T14:57:15.403Z,5.13
2017-06-03T14:59:42.923Z,5.30
2017-06-03T15:02:10.450Z,6.23
2017-06-03T15:04:38.755Z,5.43
2017-06-03T15:07:06.279Z,6.10
2017-06-03T15:09:34.593Z,5.10
2017-06-03T15:12:02.115Z,4.63
2017-06-03T15:14:29.659Z,5.30
2017-06-03T15:16:57.188Z,5.70
2017-06-03T15:19:24.758Z,4.80
2017-06-03T15:21:52.279Z,4.77
2017-06-03T15:24:19.802Z,5.77
2017-06-03T15:26:47.351Z,4.53
2017-06-03T15:29:14.881Z,4.90
2017-06-03T15:31:42.429Z,5.10
2017-06-03T15:34:09.957Z,5.10
2017-06-03T15:36:38.267Z,4.87
2017-06-03T15:39:05.795Z,4.47
2017-06-03T15:41:34.127Z,4.07
2017-06-03T15:44:01.654Z,4.20
2017-06-03T15:46:29.178Z,4.80
2017-06-03T15:48:56.723Z,4.87
2017-06-03T15:51:24.254Z,4.53
2017-06-03T15:53:51.799Z,5.63
2017-06-03T15:56:19.328Z,4.53
2017-06-03T15:58:46.875Z,4.03
2017-06-03T16:01:14.404Z,4.60
2017-06-03T16:03:41.970Z,4.47
2017-06-03T16:06:09.496Z,4.83
2017-06-03T16:08:37.022Z,5.10
2017-06-03T16:11:04.568Z,4.50
2017-06-03T16:13:32.093Z,4.30
2017-06-03T16:15:59.639Z,5.70
2017-06-03T16:18:27.160Z,4.60
2017-06-03T16:20:54.707Z,4.57
2017-06-03T16:23:22.237Z,5.47
2017-06-03T16:25:49.808Z,4.33
2017-06-03T16:28:17.332Z,4.43
2017-06-03T16:30:44.859Z,4.30
2017-06-03T16:33:12.399Z,5.00
2017-06-03T16:35:39.925Z,4.53
2017-06-03T16:38:07.466Z,4.17
2017-06-03T16:40:34.995Z,3.97
2017-06-03T16:43:02.558Z,4.27
2017-06-03T16:45:30.842Z,3.60
2017-06-03T16:47:59.134Z,5.33
2017-06-03T16:50:26.682Z,3.63
2017-06-03T16:52:54.212Z,3.97
2017-06-03T16:55:21.759Z,4.43
2017-06-03T16:57:49.280Z,3.97
2017-06-03T17:00:16.826Z,4.87
2017-06-03T17:02:45.116Z,4.10
2017-06-03T17:05:12.684Z,4.60
2017-06-03T17:07:40.210Z,4.33
2017-06-03T17:10:08.503Z,3.67
2017-06-03T17:12:36.055Z,3.63
2017-06-03T17:15:03.590Z,3.30
2017-06-03T17:17:31.904Z,3.00
2017-06-03T17:19:59.426Z,3.30
2017-06-03T17:22:27.759Z,3.53
2017-06-03T17:24:55.285Z,3.20
2017-06-03T17:27:22.811Z,3.10
2017-06-03T17:29:50.354Z,4.40
2017-06-03T17:32:17.876Z,3.87
2017-06-03T17:34:45.425Z,4.40
2017-06-03T17:37:12.951Z,5.20
2017-06-03T17:39:41.264Z,4.30
2017-06-03T17:42:08.789Z,5.40
2017-06-03T17:44:37.120Z,4.90
2017-06-03T17:47:04.655Z,4.53
2017-06-03T17:49:32.181Z,5.00
2017-06-03T17:52:00.490Z,3.17
2017-06-03T17:54:28.015Z,3.50
2017-06-03T17:56:55.559Z,3.70
2017-06-03T17:59:23.083Z,3.40
2017-06-03T18:01:50.627Z,2.80
2017-06-03T18:04:18.920Z,3.47
2017-06-03T18:06:46.496Z,3.50
2017-06-03T18:09:14.024Z,3.47
2017-06-03T18:11:42.315Z,2.70
2017-06-03T18:14:09.858Z,2.83
2017-06-03T18:16:38.148Z,2.80
2017-06-03T18:19:05.695Z,3.13
2017-06-03T18:21:33.986Z,2.57
2017-06-03T18:24:01.537Z,3.20
2017-06-03T18:26:29.829Z,3.50
2017-06-03T18:28:57.371Z,3.93
2017-06-03T18:31:25.659Z,3.13
2017-06-03T18:33:53.987Z,3.30
2017-06-03T18:36:21.517Z,3.50
2017-06-03T18:38:49.039Z,3.33
2017-06-03T18:41:16.616Z,4.60
2017-06-03T18:43:44.139Z,4.77
2017-06-03T18:46:11.679Z,5.17
2017-06-03T18:48:39.198Z,4.20
2017-06-03T18:51:06.741Z,4.80
2017-06-03T18:53:34.262Z,4.80
2017-06-03T18:56:01.829Z,3.80
2017-06-03T18:58:29.356Z,5.00
2017-06-03T19:00:56.892Z,5.97
2017-06-03T19:03:25.205Z,6.50
2017-06-03T19:05:52.731Z,6.37
2017-06-03T19:08:21.040Z,6.50
2017-06-03T19:10:48.560Z,6.60
2017-06-03T19:13:16.875Z,5.73
2017-06-03T19:15:44.403Z,5.30
2017-06-03T19:18:12.753Z,4.83
2017-06-03T19:20:40.283Z,4.97
2017-06-03T19:23:07.819Z,5.93
2017-06-03T19:25:35.366Z,5.83
2017-06-03T19:28:03.660Z,5.20
2017-06-03T19:30:31.208Z,5.37
2017-06-03T19:32:58.739Z,3.87
2017-06-03T19:35:26.282Z,4.57
2017-06-03T19:37:53.803Z,3.80
2017-06-03T19:40:21.366Z,4.57
2017-06-03T19:42:48.890Z,3.83
2017-06-03T19:45:17.183Z,3.70
2017-06-03T19:47:45.492Z,4.17
2017-06-03T19:50:13.019Z,3.50
2017-06-03T19:52:40.566Z,3.23
2017-06-03T19:55:08.859Z,3.60
2017-06-03T19:57:36.403Z,3.20
2017-06-03T20:00:04.692Z,3.50
2017-06-03T20:02:33.018Z,4.17
2017-06-03T20:05:00.539Z,3.83
2017-06-03T20:07:28.059Z,4.70
2017-06-03T20:09:55.599Z,3.93
2017-06-03T20:12:23.123Z,5.60
2017-06-03T20:14:51.436Z,5.50
2017-06-03T20:17:18.962Z,5.90
2017-06-03T20:19:47.271Z,4.37
2017-06-03T20:22:14.790Z,4.23
2017-06-03T20:24:43.122Z,4.17
2017-06-03T20:27:10.643Z,4.33
2017-06-03T20:29:38.931Z,3.30
2017-06-03T20:32:06.467Z,4.03
2017-06-03T20:34:34.754Z,6.83
2017-06-03T20:37:03.063Z,7.37
2017-06-03T20:39:30.590Z,6.00
2017-06-03T20:41:58.900Z,6.37
2017-06-03T20:44:26.431Z,6.30
2017-06-03T20:46:54.716Z,6.90
2017-06-03T20:49:22.258Z,7.00
2017-06-03T20:51:50.551Z,5.80
2017-06-03T20:54:18.092Z,4.50
2017-06-03T20:56:46.384Z,4.37
2017-06-03T20:59:13.951Z,4.40
2017-06-03T21:01:41.487Z,4.93
2017-06-03T21:04:09.779Z,6.13
2017-06-03T21:06:38.109Z,4.50
2017-06-03T21:09:05.640Z,6.57
2017-06-03T21:11:33.183Z,5.60
2017-06-03T21:14:01.472Z,5.40
2017-06-03T21:16:29.010Z,5.70
2017-06-03T21:18:57.299Z,6.70
2017-06-03T21:21:24.862Z,6.80
2017-06-03T21:23:52.429Z,5.60
2017-06-03T21:26:19.970Z,5.27
2017-06-03T21:28:47.519Z,4.70
2017-06-03T21:31:15.811Z,5.23
2017-06-03T21:33:43.352Z,4.90
2017-06-03T21:36:10.881Z,4.80
2017-06-03T21:38:38.440Z,4.50
2017-06-03T21:41:05.963Z,4.17
2017-06-03T21:43:33.491Z,5.10
2017-06-03T21:46:01.035Z,6.73
2017-06-03T21:48:28.562Z,6.20
2017-06-03T21:50:56.103Z,5.80
2017-06-03T21:53:23.630Z,4.67
2017-06-03T21:55:51.947Z,5.37
2017-06-03T21:58:19.472Z,4.80
2017-06-03T22:00:47.787Z,7.00
2017-06-03T22:03:15.308Z,6.40
2017-06-03T22:05:43.606Z,5.20
2017-06-03T22:08:11.150Z,5.10
2017-06-03T22:10:38.675Z,4.50
2017-06-03T22:13:06.223Z,4.10
2017-06-03T22:15:33.746Z,4.30
2017-06-03T22:18:01.293Z,4.07
2017-06-03T22:20:28.823Z,5.67
2017-06-03T22:22:56.367Z,5.20
2017-06-03T22:25:23.886Z,5.63
2017-06-03T22:27:51.408Z,6.20
2017-06-03T22:30:18.952Z,5.10
2017-06-03T22:32:46.478Z,5.70
2017-06-03T22:35:14.022Z,5.77
2017-06-03T22:37:41.547Z,6.23
2017-06-03T22:40:09.091Z,6.37
2017-06-03T22:42:36.617Z,6.30
2017-06-03T22:45:04.183Z,6.20
2017-06-03T22:47:31.706Z,5.90
2017-06-03T22:49:59.234Z,5.13
2017-06-03T22:52:26.777Z,5.13
2017-06-03T22:54:55.071Z,6.00
2017-06-03T22:57:22.614Z,5.90
2017-06-03T22:59:50.906Z,6.50
2017-06-03T23:02:19.215Z,6.03
2017-06-03T23:04:46.739Z,5.47
2017-06-03T23:07:15.053Z,4.87
2017-06-03T23:09:42.584Z,4.47
2017-06-03T23:12:10.875Z,5.00
2017-06-03T23:14:38.418Z,4.70
2017-06-03T23:17:06.703Z,4.27
2017-06-03T23:19:34.250Z,3.60
2017-06-03T23:22:01.776Z,3.80
2017-06-03T23:24:30.087Z,4.30
2017-06-03T23:26:57.611Z,4.60
2017-06-03T23:29:25.939Z,6.53
2017-06-03T23:31:53.464Z,5.63
2017-06-03T23:34:21.751Z,6.00
2017-06-03T23:36:49.291Z,5.83
2017-06-03T23:39:17.579Z,5.40
2017-06-03T23:41:46.490Z,5.17
2017-06-03T23:44:14.015Z,5.77
2017-06-03T23:46:42.327Z,5.00
2017-06-03T23:49:09.851Z,4.10
2017-06-03T23:51:38.167Z,4.27
2017-06-03T23:54:06.455Z,3.90
2017-06-03T23:56:33.978Z,5.40
2017-06-03T23:59:01.528Z,5.67
